createdAt,value
2023-05-09T00:01:35.468Z,3.20
2023-05-09T00:04:01.879Z,3.16
2023-05-09T00:06:31.268Z,3.12
2023-05-09T00:08:57.594Z,3.10
2023-05-09T00:11:24.565Z,3.07
2023-05-09T00:13:51.083Z,3.04
2023-05-09T00:16:17.697Z,3.01
2023-05-09T00:18:44.036Z,2.95
2023-05-09T00:21:10.563Z,2.88
2023-05-09T00:23:37.654Z,2.83
2023-05-09T00:26:06.798Z,2.79
2023-05-09T00:28:33.109Z,2.75
2023-05-09T00:30:59.465Z,2.73
2023-05-09T00:33:25.975Z,2.70
2023-05-09T00:35:53.467Z,2.66
2023-05-09T00:38:20.168Z,2.63
2023-05-09T00:40:46.587Z,2.62
2023-05-09T00:43:15.251Z,2.59
2023-05-09T00:45:42.266Z,2.57
2023-05-09T00:48:11.855Z,2.54
2023-05-09T00:50:38.141Z,2.53
2023-05-09T00:53:04.925Z,2.52
2023-05-09T00:55:34.434Z,2.54
2023-05-09T00:58:02.118Z,2.54
2023-05-09T01:00:28.720Z,2.54
2023-05-09T01:02:55.894Z,2.53
2023-05-09T01:05:28.927Z,2.50
2023-05-09T01:07:55.291Z,2.47
2023-05-09T01:10:38.860Z,2.47
2023-05-09T01:13:09.691Z,2.48
2023-05-09T01:15:38.962Z,2.49
2023-05-09T01:18:16.782Z,2.50
2023-05-09T01:20:45.982Z,2.50
2023-05-09T01:23:15.453Z,2.50
2023-05-09T01:26:13.793Z,2.50
2023-05-09T01:28:40.137Z,2.50
2023-05-09T01:31:08.121Z,2.50
2023-05-09T01:33:37.717Z,2.50
2023-05-09T01:36:07.237Z,2.51
2023-05-09T01:38:37.011Z,2.50
2023-05-09T01:41:05.045Z,2.49
2023-05-09T01:43:32.659Z,2.48
2023-05-09T01:45:59.109Z,2.48
2023-05-09T01:48:39.332Z,2.47
2023-05-09T01:51:06.322Z,2.45
2023-05-09T01:53:33.735Z,2.43
2023-05-09T01:56:02.557Z,2.42
2023-05-09T01:58:37.574Z,2.41
2023-05-09T02:01:09.776Z,2.40
2023-05-09T02:03:43.882Z,2.37
2023-05-09T02:06:21.498Z,2.35
2023-05-09T02:08:49.005Z,2.34
2023-05-09T02:11:16.047Z,2.32
2023-05-09T02:13:42.510Z,2.30
2023-05-09T02:16:09.516Z,2.29
2023-05-09T02:18:36.128Z,2.27
2023-05-09T02:21:02.816Z,2.27
2023-05-09T02:23:29.731Z,2.24
2023-05-09T02:25:56.293Z,2.23
2023-05-09T02:28:24.806Z,2.20
2023-05-09T02:30:52.518Z,2.18
2023-05-09T02:33:19.072Z,2.17
2023-05-09T02:35:46.027Z,2.15
2023-05-09T02:38:13.039Z,2.13
2023-05-09T02:40:41.605Z,2.13
2023-05-09T02:43:08.006Z,2.11
2023-05-09T02:45:36.780Z,2.10
2023-05-09T02:48:03.609Z,2.07
2023-05-09T02:50:31.009Z,2.05
2023-05-09T02:52:57.371Z,2.03
2023-05-09T02:55:24.006Z,2.02
2023-05-09T02:57:56.253Z,2.02
2023-05-09T03:00:30.986Z,2.00
2023-05-09T03:02:57.606Z,2.00
2023-05-09T03:05:24.028Z,1.99
2023-05-09T03:07:50.344Z,1.98
2023-05-09T03:10:16.987Z,2.00
2023-05-09T03:12:43.599Z,2.01
2023-05-09T03:15:12.771Z,2.02
2023-05-09T03:17:39.904Z,2.03
2023-05-09T03:20:08.801Z,2.04
2023-05-09T03:22:35.398Z,2.06
2023-05-09T03:25:03.067Z,2.10
2023-05-09T03:27:29.459Z,2.13
2023-05-09T03:29:56.110Z,2.17
2023-05-09T03:32:22.585Z,2.21
2023-05-09T03:34:49.243Z,2.27
2023-05-09T03:37:16.077Z,2.34
2023-05-09T03:39:42.812Z,2.42
2023-05-09T03:42:09.252Z,2.49
2023-05-09T03:44:36.035Z,2.60
2023-05-09T03:47:02.424Z,2.69
2023-05-09T03:49:33.630Z,2.81
2023-05-09T03:52:00.205Z,2.91
2023-05-09T03:54:27.018Z,3.02
2023-05-09T03:56:53.361Z,3.14
2023-05-09T03:59:19.810Z,3.24
2023-05-09T04:01:46.334Z,3.35
2023-05-09T04:04:12.958Z,3.47
2023-05-09T04:06:39.518Z,3.58
2023-05-09T04:09:06.954Z,3.69
2023-05-09T04:11:34.050Z,3.80
2023-05-09T04:14:01.049Z,3.90
2023-05-09T04:16:32.831Z,4.00
2023-05-09T04:18:59.392Z,4.13
2023-05-09T04:21:25.770Z,4.25
2023-05-09T04:23:53.832Z,4.37
2023-05-09T04:26:25.452Z,4.48
2023-05-09T04:28:53.271Z,4.59
2023-05-09T04:31:20.120Z,4.69
2023-05-09T04:33:49.153Z,4.80
2023-05-09T04:36:15.630Z,4.91
2023-05-09T04:38:42.241Z,5.00
2023-05-09T04:41:11.534Z,5.09
2023-05-09T04:43:40.477Z,5.19
2023-05-09T04:46:07.159Z,5.29
2023-05-09T04:48:34.291Z,5.36
2023-05-09T04:51:01.267Z,5.42
2023-05-09T04:53:28.208Z,5.50
2023-05-09T04:55:54.991Z,5.59
2023-05-09T04:58:24.683Z,5.70
2023-05-09T05:00:51.151Z,5.80
2023-05-09T05:03:17.864Z,5.91
2023-05-09T05:05:44.646Z,6.01
2023-05-09T05:08:20.373Z,6.12
2023-05-09T05:10:47.462Z,6.23
2023-05-09T05:13:15.346Z,6.34
2023-05-09T05:15:43.603Z,6.48
2023-05-09T05:18:10.404Z,6.61
2023-05-09T05:20:39.336Z,6.73
2023-05-09T05:23:05.766Z,6.87
2023-05-09T05:25:32.226Z,7.01
2023-05-09T05:28:14.059Z,7.13
2023-05-09T05:30:43.570Z,7.25
2023-05-09T05:33:11.072Z,7.37
2023-05-09T05:35:38.332Z,7.51
2023-05-09T05:38:08.093Z,7.66
2023-05-09T05:40:34.794Z,7.82
2023-05-09T05:43:02.799Z,8.00
2023-05-09T05:45:30.322Z,8.13
2023-05-09T05:47:57.221Z,8.24
2023-05-09T05:50:30.127Z,8.32
2023-05-09T05:52:57.186Z,8.42
2023-05-09T05:55:23.681Z,8.53
2023-05-09T05:57:50.751Z,8.68
2023-05-09T06:00:17.323Z,8.82
2023-05-09T06:02:46.102Z,8.93
2023-05-09T06:05:19.029Z,9.04
2023-05-09T06:07:45.456Z,9.17
2023-05-09T06:10:11.972Z,9.26
2023-05-09T06:12:38.464Z,9.35
2023-05-09T06:15:06.212Z,9.45
2023-05-09T06:17:34.805Z,9.56
2023-05-09T06:20:01.318Z,9.65
2023-05-09T06:22:27.876Z,9.73
2023-05-09T06:24:54.215Z,9.80
2023-05-09T06:27:20.664Z,9.86
2023-05-09T06:29:47.224Z,9.93
2023-05-09T06:32:13.714Z,9.96
2023-05-09T06:34:40.274Z,9.99
2023-05-09T06:37:06.673Z,10.06
2023-05-09T06:39:33.223Z,10.14
2023-05-09T06:41:59.736Z,10.18
2023-05-09T06:44:30.619Z,10.22
2023-05-09T06:46:57.003Z,10.28
2023-05-09T06:49:23.509Z,10.36
2023-05-09T06:51:49.927Z,10.45
2023-05-09T06:54:16.302Z,10.55
2023-05-09T06:56:42.833Z,10.63
2023-05-09T06:59:09.313Z,10.67
2023-05-09T07:01:35.840Z,10.72
2023-05-09T07:04:02.312Z,10.77
2023-05-09T07:06:28.809Z,10.85
2023-05-09T07:08:55.249Z,10.97
2023-05-09T07:11:24.966Z,11.06
2023-05-09T07:13:51.353Z,11.13
2023-05-09T07:16:17.732Z,11.18
2023-05-09T07:18:44.251Z,11.23
2023-05-09T07:21:10.573Z,11.29
2023-05-09T07:23:37.129Z,11.33
2023-05-09T07:26:03.478Z,11.37
2023-05-09T07:28:30.031Z,11.44
2023-05-09T07:30:56.663Z,11.53
2023-05-09T07:33:23.080Z,11.60
2023-05-09T07:35:49.626Z,11.66
2023-05-09T07:38:16.185Z,11.76
2023-05-09T07:40:42.567Z,11.81
2023-05-09T07:43:08.848Z,11.93
2023-05-09T07:45:35.219Z,11.99
2023-05-09T07:48:04.502Z,11.99
2023-05-09T07:50:31.007Z,12.02
2023-05-09T07:52:57.417Z,12.06
2023-05-09T07:55:23.834Z,12.05
2023-05-09T07:57:50.168Z,12.09
2023-05-09T08:00:16.610Z,12.17
2023-05-09T08:02:43.116Z,12.22
2023-05-09T08:05:09.543Z,12.27
2023-05-09T08:07:36.118Z,12.33
2023-05-09T08:10:03.494Z,12.35
2023-05-09T08:12:29.841Z,12.36
2023-05-09T08:14:56.182Z,12.36
2023-05-09T08:17:22.685Z,12.36
2023-05-09T08:19:49.049Z,12.39
2023-05-09T08:22:15.968Z,12.45
2023-05-09T08:24:42.321Z,12.57
2023-05-09T08:27:08.948Z,12.70
2023-05-09T08:29:35.293Z,12.82
2023-05-09T08:32:01.640Z,12.85
2023-05-09T08:34:28.045Z,12.81
2023-05-09T08:36:54.371Z,12.84
2023-05-09T08:39:20.996Z,12.93
2023-05-09T08:41:47.633Z,12.98
2023-05-09T08:44:14.016Z,13.05
2023-05-09T08:46:42.395Z,13.09
2023-05-09T08:49:09.166Z,13.19
2023-05-09T08:51:35.970Z,13.35
2023-05-09T08:54:05.091Z,13.49
2023-05-09T08:56:31.414Z,13.54
2023-05-09T08:58:57.949Z,13.57
2023-05-09T09:01:24.756Z,13.44
2023-05-09T09:03:51.331Z,13.31
2023-05-09T09:06:20.737Z,13.25
2023-05-09T09:08:47.282Z,13.35
2023-05-09T09:11:14.260Z,13.39
2023-05-09T09:13:41.530Z,13.52
2023-05-09T09:16:10.008Z,13.67
2023-05-09T09:18:37.083Z,13.83
2023-05-09T09:21:09.410Z,14.03
2023-05-09T09:23:48.129Z,14.16
2023-05-09T09:26:22.256Z,14.20
2023-05-09T09:28:48.780Z,14.14
2023-05-09T09:31:21.381Z,14.07
2023-05-09T09:33:48.276Z,14.11
2023-05-09T09:36:14.932Z,14.20
2023-05-09T09:38:41.791Z,14.37
2023-05-09T09:41:15.841Z,14.64
2023-05-09T09:43:44.776Z,14.93
2023-05-09T09:46:14.326Z,15.11
2023-05-09T09:48:45.461Z,15.17
2023-05-09T09:51:12.021Z,15.19
2023-05-09T09:53:41.383Z,15.06
2023-05-09T09:56:08.275Z,14.98
2023-05-09T09:58:34.865Z,14.82
2023-05-09T10:01:04.543Z,14.90
2023-05-09T10:03:43.845Z,15.15
2023-05-09T10:06:11.262Z,15.33
2023-05-09T10:08:37.982Z,15.44
2023-05-09T10:11:04.395Z,15.65
2023-05-09T10:13:34.039Z,15.96
2023-05-09T10:16:01.275Z,16.32
2023-05-09T10:18:31.853Z,16.67
2023-05-09T10:20:59.059Z,16.73
2023-05-09T10:23:28.693Z,16.51
2023-05-09T10:26:04.686Z,16.35
2023-05-09T10:28:32.606Z,16.47
2023-05-09T10:31:05.434Z,16.76
2023-05-09T10:33:36.442Z,16.96
2023-05-09T10:36:03.348Z,17.30
2023-05-09T10:38:30.289Z,17.59
2023-05-09T10:40:57.381Z,17.82
2023-05-09T10:43:23.826Z,18.04
2023-05-09T10:45:50.810Z,17.99
2023-05-09T10:48:17.369Z,18.03
2023-05-09T10:50:44.500Z,18.35
2023-05-09T10:53:11.263Z,18.86
2023-05-09T10:55:48.236Z,19.07
2023-05-09T10:58:18.941Z,19.32
2023-05-09T11:00:49.300Z,19.60
2023-05-09T11:03:15.821Z,19.90
2023-05-09T11:05:55.714Z,19.86
2023-05-09T11:08:25.355Z,19.70
2023-05-09T11:10:56.135Z,19.94
2023-05-09T11:13:24.041Z,20.13
2023-05-09T11:16:02.862Z,20.32
2023-05-09T11:18:30.031Z,19.88
2023-05-09T11:20:56.770Z,19.86
2023-05-09T11:23:29.932Z,19.83
2023-05-09T11:26:08.820Z,19.74
2023-05-09T11:28:36.539Z,20.28
2023-05-09T11:31:09.223Z,20.81
2023-05-09T11:33:36.439Z,20.89
2023-05-09T11:36:29.311Z,21.45
2023-05-09T11:39:06.162Z,21.80
2023-05-09T11:41:39.944Z,22.24
2023-05-09T11:44:35.972Z,22.30
2023-05-09T11:47:03.544Z,23.11
2023-05-09T11:49:30.001Z,23.69
2023-05-09T11:51:58.850Z,24.10
2023-05-09T11:54:25.462Z,24.30
2023-05-09T11:56:52.116Z,24.83
2023-05-09T11:59:21.310Z,24.92
2023-05-09T12:01:47.697Z,24.85
2023-05-09T12:04:19.114Z,24.16
2023-05-09T12:06:48.770Z,23.27
2023-05-09T12:09:17.396Z,23.84
2023-05-09T12:11:50.412Z,24.30
2023-05-09T12:14:26.964Z,24.90
2023-05-09T12:16:53.754Z,24.76
2023-05-09T12:19:20.357Z,24.34
2023-05-09T12:21:46.704Z,24.28
2023-05-09T12:24:13.016Z,24.67
2023-05-09T12:26:39.458Z,25.24
2023-05-09T12:29:06.093Z,25.51
2023-05-09T12:31:32.998Z,25.23
2023-05-09T12:34:01.595Z,24.28
2023-05-09T12:36:33.927Z,24.32
2023-05-09T12:39:08.381Z,24.99
2023-05-09T12:41:39.482Z,25.71
2023-05-09T12:44:20.613Z,25.79
2023-05-09T12:46:57.575Z,25.07
2023-05-09T12:49:26.973Z,24.38
2023-05-09T12:52:00.281Z,24.93
2023-05-09T12:54:28.328Z,26.22
2023-05-09T12:56:58.391Z,26.64
2023-05-09T12:59:25.720Z,25.91
2023-05-09T13:01:53.084Z,25.42
2023-05-09T13:04:23.114Z,26.10
2023-05-09T13:06:55.899Z,27.06
2023-05-09T13:09:23.175Z,26.41
2023-05-09T13:12:03.645Z,25.26
2023-05-09T13:14:30.158Z,24.35
2023-05-09T13:16:56.677Z,23.49
2023-05-09T13:19:23.044Z,22.65
2023-05-09T13:21:53.945Z,22.65
2023-05-09T13:24:20.538Z,23.51
2023-05-09T13:26:46.923Z,24.58
2023-05-09T13:29:33.590Z,25.61
2023-05-09T13:32:02.576Z,25.83
2023-05-09T13:34:38.913Z,25.68
2023-05-09T13:37:07.808Z,24.99
2023-05-09T13:39:36.653Z,24.48
2023-05-09T13:42:03.214Z,24.90
2023-05-09T13:44:35.374Z,25.48
2023-05-09T13:47:01.880Z,26.04
2023-05-09T13:49:30.876Z,25.49
2023-05-09T13:51:57.228Z,24.55
2023-05-09T13:54:23.862Z,24.43
2023-05-09T13:56:52.784Z,25.05
2023-05-09T13:59:19.170Z,24.41
2023-05-09T14:01:45.614Z,23.17
2023-05-09T14:04:12.051Z,22.07
2023-05-09T14:06:38.546Z,22.08
2023-05-09T14:09:04.855Z,23.35
2023-05-09T14:11:34.036Z,23.54
2023-05-09T14:14:00.663Z,22.97
2023-05-09T14:16:27.117Z,22.46
2023-05-09T14:18:53.459Z,22.58
2023-05-09T14:21:19.826Z,22.19
2023-05-09T14:23:46.151Z,21.68
2023-05-09T14:26:12.473Z,22.31
2023-05-09T14:28:41.488Z,23.77
2023-05-09T14:31:08.000Z,24.99
2023-05-09T14:33:34.321Z,25.24
2023-05-09T14:36:01.494Z,25.42
2023-05-09T14:38:28.157Z,25.96
2023-05-09T14:40:57.554Z,26.35
2023-05-09T14:43:26.677Z,27.32
2023-05-09T14:45:53.424Z,28.91
2023-05-09T14:48:19.836Z,30.53
2023-05-09T14:50:46.210Z,31.69
2023-05-09T14:53:12.900Z,32.24
2023-05-09T14:55:42.343Z,32.15
2023-05-09T14:58:11.003Z,31.85
2023-05-09T15:00:40.541Z,32.26
2023-05-09T15:03:10.110Z,32.84
2023-05-09T15:05:36.556Z,33.49
2023-05-09T15:08:03.021Z,33.86
2023-05-09T15:10:29.417Z,34.20
2023-05-09T15:13:00.677Z,34.25
2023-05-09T15:15:27.185Z,33.26
2023-05-09T15:17:53.832Z,32.61
2023-05-09T15:20:20.305Z,32.42
2023-05-09T15:22:47.584Z,32.21
2023-05-09T15:25:14.259Z,32.47
2023-05-09T15:27:43.714Z,32.85
2023-05-09T15:30:13.106Z,32.85
2023-05-09T15:32:42.443Z,32.46
2023-05-09T15:35:09.308Z,31.90
2023-05-09T15:37:35.918Z,31.53
2023-05-09T15:40:02.370Z,31.00
2023-05-09T15:42:29.049Z,30.36
2023-05-09T15:44:55.523Z,30.30
2023-05-09T15:47:21.914Z,30.54
2023-05-09T15:49:55.567Z,31.08
2023-05-09T15:52:21.962Z,32.00
2023-05-09T15:54:48.312Z,32.81
2023-05-09T15:57:22.083Z,33.45
2023-05-09T15:59:51.936Z,33.64
2023-05-09T16:02:18.323Z,32.97
2023-05-09T16:04:44.930Z,32.82
2023-05-09T16:07:11.406Z,33.03
2023-05-09T16:09:37.774Z,33.22
2023-05-09T16:12:04.337Z,33.27
2023-05-09T16:14:30.909Z,32.84
2023-05-09T16:16:57.365Z,32.46
2023-05-09T16:19:26.403Z,32.25
2023-05-09T16:21:52.912Z,32.10
2023-05-09T16:24:19.379Z,32.01
2023-05-09T16:26:48.720Z,31.87
2023-05-09T16:29:15.306Z,31.71
2023-05-09T16:31:46.986Z,31.37
2023-05-09T16:34:16.268Z,31.03
2023-05-09T16:36:42.774Z,30.94
2023-05-09T16:39:09.153Z,30.96
2023-05-09T16:41:35.645Z,30.97
2023-05-09T16:44:02.035Z,30.42
2023-05-09T16:46:28.436Z,30.03
2023-05-09T16:48:55.062Z,30.12
2023-05-09T16:51:21.540Z,30.17
2023-05-09T16:53:48.033Z,29.62
2023-05-09T16:56:14.649Z,29.36
2023-05-09T16:58:43.951Z,29.09
2023-05-09T17:01:12.941Z,28.19
2023-05-09T17:03:41.512Z,26.22
2023-05-09T17:06:11.079Z,24.22
2023-05-09T17:08:37.552Z,22.57
2023-05-09T17:11:04.635Z,21.30
2023-05-09T17:13:31.223Z,20.25
2023-05-09T17:15:57.992Z,19.43
2023-05-09T17:18:36.094Z,18.65
2023-05-09T17:21:04.685Z,17.84
2023-05-09T17:23:31.228Z,17.27
2023-05-09T17:25:57.863Z,16.74
2023-05-09T17:28:27.121Z,16.31
2023-05-09T17:30:53.864Z,15.92
2023-05-09T17:33:23.021Z,15.64
2023-05-09T17:35:49.580Z,15.39
2023-05-09T17:38:16.565Z,15.17
2023-05-09T17:40:43.567Z,14.93
2023-05-09T17:43:10.259Z,14.72
2023-05-09T17:45:37.104Z,14.52
2023-05-09T17:48:03.510Z,14.34
2023-05-09T17:50:39.368Z,14.16
2023-05-09T17:53:05.716Z,14.00
2023-05-09T17:55:34.950Z,13.84
2023-05-09T17:58:02.087Z,13.69
2023-05-09T18:00:28.635Z,13.55
2023-05-09T18:02:56.719Z,13.42
2023-05-09T18:05:24.171Z,13.29
2023-05-09T18:07:52.423Z,13.16
2023-05-09T18:10:19.340Z,13.02
2023-05-09T18:12:46.058Z,12.87
2023-05-09T18:15:13.006Z,12.73
2023-05-09T18:17:40.048Z,12.60
2023-05-09T18:20:07.637Z,12.47
2023-05-09T18:22:34.368Z,12.34
2023-05-09T18:25:00.976Z,12.21
2023-05-09T18:27:27.534Z,12.10
2023-05-09T18:29:54.043Z,11.98
2023-05-09T18:32:20.432Z,11.87
2023-05-09T18:34:46.768Z,11.76
2023-05-09T18:37:13.235Z,11.64
2023-05-09T18:39:39.680Z,11.54
2023-05-09T18:42:07.668Z,11.45
2023-05-09T18:44:35.427Z,11.36
2023-05-09T18:47:02.225Z,11.27
2023-05-09T18:49:31.686Z,11.18
2023-05-09T18:52:01.871Z,11.11
2023-05-09T18:54:29.250Z,11.04
2023-05-09T18:56:56.506Z,10.99
2023-05-09T18:59:23.925Z,10.92
2023-05-09T19:01:50.535Z,10.86
2023-05-09T19:04:17.040Z,10.78
2023-05-09T19:06:43.816Z,10.73
2023-05-09T19:09:10.184Z,10.67
2023-05-09T19:11:36.823Z,10.59
2023-05-09T19:14:03.280Z,10.51
2023-05-09T19:16:29.807Z,10.43
2023-05-09T19:18:57.226Z,10.35
2023-05-09T19:21:23.876Z,10.29
2023-05-09T19:23:50.365Z,10.21
2023-05-09T19:26:17.557Z,10.13
2023-05-09T19:28:44.898Z,10.06
2023-05-09T19:31:11.577Z,10.00
2023-05-09T19:33:38.287Z,9.95
2023-05-09T19:36:04.911Z,9.91
2023-05-09T19:38:31.455Z,9.86
2023-05-09T19:40:57.931Z,9.79
2023-05-09T19:43:24.673Z,9.73
2023-05-09T19:45:59.208Z,9.68
2023-05-09T19:48:25.738Z,9.64
2023-05-09T19:50:55.221Z,9.60
2023-05-09T19:53:23.184Z,9.52
2023-05-09T19:55:50.096Z,9.46
2023-05-09T19:58:17.714Z,9.40
2023-05-09T20:00:45.171Z,9.35
2023-05-09T20:03:11.857Z,9.31
2023-05-09T20:05:57.333Z,9.28
2023-05-09T20:08:24.111Z,9.27
2023-05-09T20:10:50.670Z,9.26
2023-05-09T20:13:17.328Z,9.24
2023-05-09T20:15:44.119Z,9.22
2023-05-09T20:18:10.709Z,9.18
2023-05-09T20:20:37.315Z,9.15
2023-05-09T20:23:03.869Z,9.11
2023-05-09T20:25:30.877Z,9.04
2023-05-09T20:27:57.496Z,8.96
2023-05-09T20:30:24.217Z,8.89
2023-05-09T20:32:50.853Z,8.81
2023-05-09T20:35:17.401Z,8.75
2023-05-09T20:37:44.133Z,8.70
2023-05-09T20:40:10.640Z,8.64
2023-05-09T20:42:37.272Z,8.57
2023-05-09T20:45:03.964Z,8.51
2023-05-09T20:47:33.471Z,8.48
2023-05-09T20:50:00.033Z,8.45
2023-05-09T20:52:26.469Z,8.42
2023-05-09T20:54:52.976Z,8.38
2023-05-09T20:57:19.368Z,8.32
2023-05-09T20:59:45.826Z,8.28
2023-05-09T21:02:12.296Z,8.24
2023-05-09T21:04:38.855Z,8.19
2023-05-09T21:07:05.377Z,8.15
2023-05-09T21:09:31.748Z,8.11
2023-05-09T21:11:58.117Z,8.06
2023-05-09T21:14:24.692Z,8.03
2023-05-09T21:16:59.082Z,7.98
2023-05-09T21:19:25.472Z,7.94
2023-05-09T21:21:51.947Z,7.91
2023-05-09T21:24:18.656Z,7.88
2023-05-09T21:26:47.782Z,7.83
2023-05-09T21:29:14.520Z,7.78
2023-05-09T21:31:41.091Z,7.74
2023-05-09T21:34:07.522Z,7.70
2023-05-09T21:36:35.094Z,7.66
2023-05-09T21:39:01.481Z,7.63
2023-05-09T21:41:28.075Z,7.60
2023-05-09T21:43:54.552Z,7.59
2023-05-09T21:46:21.159Z,7.58
2023-05-09T21:48:47.709Z,7.58
2023-05-09T21:51:14.044Z,7.58
2023-05-09T21:53:43.141Z,7.57
2023-05-09T21:56:09.504Z,7.55
2023-05-09T21:58:35.990Z,7.52
2023-05-09T22:01:02.709Z,7.47
2023-05-09T22:03:29.377Z,7.44
2023-05-09T22:05:55.727Z,7.43
2023-05-09T22:08:22.425Z,7.40
2023-05-09T22:10:48.726Z,7.37
2023-05-09T22:13:15.149Z,7.34
2023-05-09T22:15:41.721Z,7.32
2023-05-09T22:18:08.350Z,7.30
2023-05-09T22:20:34.847Z,7.27
2023-05-09T22:23:01.294Z,7.25
2023-05-09T22:25:27.729Z,7.23
2023-05-09T22:27:54.730Z,7.21
2023-05-09T22:30:21.050Z,7.18
2023-05-09T22:32:47.448Z,7.16
2023-05-09T22:35:13.746Z,7.15
2023-05-09T22:37:40.030Z,7.14
2023-05-09T22:40:06.654Z,7.13
2023-05-09T22:42:32.994Z,7.11
2023-05-09T22:44:59.511Z,7.09
2023-05-09T22:47:25.842Z,7.07
2023-05-09T22:49:52.405Z,7.05
2023-05-09T22:52:18.721Z,7.02
2023-05-09T22:54:45.030Z,7.01
2023-05-09T22:57:11.681Z,7.00
2023-05-09T22:59:38.095Z,6.97
2023-05-09T23:02:04.414Z,6.96
2023-05-09T23:04:30.779Z,6.94
2023-05-09T23:06:57.072Z,6.91
2023-05-09T23:09:23.359Z,6.89
2023-05-09T23:11:50.013Z,6.87
2023-05-09T23:14:16.305Z,6.85
2023-05-09T23:16:42.600Z,6.84
2023-05-09T23:19:09.183Z,6.82
2023-05-09T23:21:35.494Z,6.80
2023-05-09T23:24:01.844Z,6.78
2023-05-09T23:26:28.210Z,6.76
2023-05-09T23:28:54.548Z,6.75
2023-05-09T23:31:20.900Z,6.74
2023-05-09T23:33:47.207Z,6.72
2023-05-09T23:36:13.580Z,6.71
2023-05-09T23:38:39.854Z,6.68
2023-05-09T23:41:06.179Z,6.65
2023-05-09T23:43:32.483Z,6.61
2023-05-09T23:45:58.823Z,6.57
2023-05-09T23:48:25.139Z,6.54
2023-05-09T23:50:51.575Z,6.49
2023-05-09T23:53:20.319Z,6.46
2023-05-09T23:55:46.608Z,6.42
2023-05-09T23:58:12.875Z,6.40
